Time;durP1;ratioP1;P1;durP2;ratioP2;P2;SDS_P1;SDS_P2;PMS_P1;PMS_P2;Temp;Humidity;BMP_temperature;BMP_pressure;BME280_temperature;BME280_humidity;BME280_pressure;Samples;Min_cycle;Max_cycle;Signal;HPM_P1;HPM_P2
2022/03/14 00:00:28;;;;;;;11.02;6.53;;;7.50;99.90;;;;;;4949441;29;20934;-68
2022/03/14 00:02:55;;;;;;;15.02;6.88;;;7.40;99.90;;;;;;4962810;28;20135;-68
2022/03/14 00:05:24;;;;;;;14.90;6.60;;;7.40;99.90;;;;;;4941818;29;20048;-68
2022/03/14 00:07:51;;;;;;;14.40;6.50;;;7.40;99.90;;;;;;4935221;29;20060;-68
2022/03/14 00:10:18;;;;;;;11.15;6.25;;;7.40;99.90;;;;;;4936862;29;20091;-68
2022/03/14 00:12:48;;;;;;;11.13;6.00;;;7.40;99.90;;;;;;4943808;29;20493;-68
2022/03/14 00:15:16;;;;;;;11.35;6.53;;;7.40;99.90;;;;;;4942077;28;20056;-69
2022/03/14 00:17:47;;;;;;;12.23;6.10;;;7.50;99.90;;;;;;4949046;28;20118;-68
2022/03/14 00:20:15;;;;;;;8.65;5.53;;;7.50;99.90;;;;;;4961092;28;20043;-68
2022/03/14 00:22:43;;;;;;;13.40;6.50;;;7.50;99.90;;;;;;4938864;29;20468;-69
2022/03/14 00:25:10;;;;;;;13.07;6.65;;;7.50;99.90;;;;;;4949074;29;20052;-68
2022/03/14 00:27:37;;;;;;;10.15;6.35;;;7.50;99.90;;;;;;4934609;29;20068;-68
2022/03/14 00:30:10;;;;;;;13.93;5.18;;;7.50;99.90;;;;;;4951964;29;20043;-69
2022/03/14 00:32:37;;;;;;;15.57;6.15;;;7.50;99.90;;;;;;4952664;29;20509;-68
2022/03/14 00:35:07;;;;;;;10.20;5.05;;;7.40;99.90;;;;;;4948381;29;20150;-68
2022/03/14 00:37:34;;;;;;;11.32;4.82;;;7.40;99.90;;;;;;4964623;28;20058;-68
2022/03/14 00:40:03;;;;;;;8.70;4.45;;;7.40;99.90;;;;;;4945820;29;20048;-68
2022/03/14 00:42:30;;;;;;;7.30;3.90;;;7.40;99.90;;;;;;4946444;29;20402;-67
2022/03/14 00:44:57;;;;;;;314.05;202.05;;;7.40;99.90;;;;;;4967301;28;20051;-65
2022/03/14 00:47:23;;;;;;;412.42;290.13;;;7.50;99.90;;;;;;4937716;29;20047;-70
2022/03/14 00:49:50;;;;;;;124.38;85.93;;;7.60;99.90;;;;;;4947717;29;20050;-70
2022/03/14 00:52:17;;;;;;;40.35;23.15;;;7.50;99.90;;;;;;4954373;28;20074;-69
2022/03/14 00:54:45;;;;;;;26.23;14.05;;;7.50;99.90;;;;;;4933042;29;20134;-70
2022/03/14 00:57:14;;;;;;;16.77;9.52;;;7.50;99.90;;;;;;4950178;28;20079;-70
2022/03/14 00:59:42;;;;;;;11.10;5.05;;;7.50;99.90;;;;;;4936990;29;20050;-70
2022/03/14 01:02:09;;;;;;;8.82;4.82;;;7.50;99.90;;;;;;4951880;28;20134;-70
2022/03/14 01:04:36;;;;;;;10.57;4.32;;;7.50;99.90;;;;;;4950132;28;20138;-70
2022/03/14 01:07:03;;;;;;;13.88;4.57;;;7.50;99.90;;;;;;4951335;29;20044;-70
2022/03/14 01:09:30;;;;;;;6.90;3.90;;;7.50;99.90;;;;;;4951228;29;20057;-71
2022/03/14 01:11:57;;;;;;;11.20;3.80;;;7.50;99.90;;;;;;4966405;28;20146;-70
2022/03/14 01:14:25;;;;;;;7.70;3.30;;;7.60;99.90;;;;;;4955068;28;20073;-70
2022/03/14 01:16:52;;;;;;;7.80;3.38;;;7.60;99.90;;;;;;4959203;28;20403;-70
2022/03/14 01:19:20;;;;;;;11.40;3.83;;;7.70;99.90;;;;;;4935812;29;20410;-70
2022/03/14 01:21:47;;;;;;;12.55;3.75;;;7.70;99.90;;;;;;4946922;28;20495;-70
2022/03/14 01:24:14;;;;;;;7.35;3.47;;;7.80;99.90;;;;;;4949920;28;20521;-70
2022/03/14 01:26:41;;;;;;;11.30;3.63;;;7.80;99.90;;;;;;4938293;29;20055;-69
2022/03/14 01:29:08;;;;;;;8.77;3.78;;;7.80;99.90;;;;;;4948578;29;20051;-70
2022/03/14 01:31:35;;;;;;;11.55;3.22;;;7.80;99.90;;;;;;4947391;29;20066;-70
2022/03/14 01:34:03;;;;;;;13.15;4.78;;;7.80;99.90;;;;;;4967245;28;20109;-70
2022/03/14 01:36:30;;;;;;;10.88;2.92;;;7.90;99.90;;;;;;4955010;29;20627;-70
2022/03/14 01:38:58;;;;;;;9.88;4.22;;;7.90;99.90;;;;;;4952430;28;20050;-70
2022/03/14 01:41:26;;;;;;;10.60;3.83;;;8.00;99.90;;;;;;4971425;28;20509;-70
2022/03/14 01:43:55;;;;;;;8.90;3.78;;;8.00;99.90;;;;;;4947181;28;20071;-70
2022/03/14 01:46:22;;;;;;;11.18;4.10;;;8.00;99.90;;;;;;4955775;28;20043;-70
2022/03/14 01:48:51;;;;;;;9.43;3.42;;;8.00;99.90;;;;;;4951756;29;20047;-70
2022/03/14 01:51:18;;;;;;;7.17;3.10;;;8.00;99.90;;;;;;4952612;29;20055;-70
2022/03/14 01:53:45;;;;;;;9.60;3.75;;;8.00;99.90;;;;;;4947243;29;20308;-70
2022/03/14 01:56:12;;;;;;;10.35;3.67;;;8.10;99.90;;;;;;4950224;29;20053;-70
2022/03/14 01:58:40;;;;;;;11.18;3.78;;;8.10;99.90;;;;;;4937303;29;20151;-70
2022/03/14 02:01:07;;;;;;;7.68;3.55;;;8.10;99.90;;;;;;4943647;29;20490;-70
2022/03/14 02:03:34;;;;;;;14.55;3.45;;;8.10;99.90;;;;;;4954978;29;20105;-70
2022/03/14 02:06:01;;;;;;;11.43;4.22;;;8.10;99.90;;;;;;4944705;28;20054;-70
2022/03/14 02:08:29;;;;;;;9.68;3.55;;;8.10;99.90;;;;;;4945784;29;20059;-70
2022/03/14 02:10:56;;;;;;;13.85;4.07;;;8.10;99.90;;;;;;4970764;28;20406;-70
2022/03/14 02:13:23;;;;;;;8.35;3.53;;;8.10;99.90;;;;;;4956498;29;20111;-70
2022/03/14 02:15:50;;;;;;;11.23;4.10;;;8.10;99.90;;;;;;4952428;28;20050;-70
2022/03/14 02:18:17;;;;;;;14.98;5.00;;;8.10;99.90;;;;;;4965152;28;20075;-70
2022/03/14 02:20:44;;;;;;;11.63;4.53;;;8.10;99.90;;;;;;4958946;28;20855;-70
2022/03/14 02:23:12;;;;;;;14.75;4.88;;;8.10;99.90;;;;;;4939330;29;20135;-71
2022/03/14 02:25:52;;;;;;;14.75;4.97;;;8.10;99.90;;;;;;4941713;29;20043;-70
2022/03/14 02:28:21;;;;;;;19.27;4.75;;;8.10;99.90;;;;;;4945590;29;20048;-70
2022/03/14 02:30:51;;;;;;;;;;;8.10;99.90;;;;;;4969642;28;20409;-71
2022/03/14 02:33:19;;;;;;;9.45;3.85;;;8.10;99.90;;;;;;4940840;28;19929;-71
2022/03/14 02:35:46;;;;;;;13.18;4.15;;;8.10;99.90;;;;;;4935847;29;20075;-70
2022/03/14 02:38:17;;;;;;;16.80;5.38;;;8.10;99.90;;;;;;4934638;29;20051;-71
2022/03/14 02:40:46;;;;;;;12.60;4.25;;;8.10;99.90;;;;;;4938062;29;20054;-70
2022/03/14 02:43:20;;;;;;;12.27;4.53;;;8.10;99.90;;;;;;4964396;28;20051;-70
2022/03/14 02:45:48;;;;;;;8.30;4.10;;;8.00;99.90;;;;;;4935559;29;20059;-70
2022/03/14 02:48:16;;;;;;;10.20;4.13;;;8.00;99.90;;;;;;4954308;28;20055;-70
2022/03/14 02:50:43;;;;;;;10.02;3.78;;;7.90;99.90;;;;;;4943706;29;20047;-70
2022/03/14 02:53:13;;;;;;;12.18;3.90;;;7.80;99.90;;;;;;4934035;29;20138;-70
2022/03/14 02:55:40;;;;;;;11.20;4.78;;;7.70;99.90;;;;;;4933429;29;20047;-71
2022/03/14 02:58:07;;;;;;;10.82;4.43;;;7.60;99.90;;;;;;4954960;28;20046;-70
2022/03/14 03:00:35;;;;;;;12.25;4.18;;;7.60;99.90;;;;;;4935321;29;20054;-71
2022/03/14 03:03:03;;;;;;;8.40;3.58;;;7.50;99.90;;;;;;4953782;28;20138;-71
2022/03/14 03:05:31;;;;;;;12.13;4.45;;;7.40;99.90;;;;;;4940716;29;20039;-71
2022/03/14 03:08:03;;;;;;;6.47;3.55;;;7.30;99.90;;;;;;4955210;28;20418;-70
2022/03/14 03:10:31;;;;;;;9.68;3.78;;;7.30;99.90;;;;;;4965846;28;20505;-71
2022/03/14 03:12:58;;;;;;;8.88;4.85;;;7.20;99.90;;;;;;4950212;28;20491;-71
2022/03/14 03:15:25;;;;;;;9.93;4.80;;;7.20;99.90;;;;;;4957939;28;20066;-70
2022/03/14 03:17:52;;;;;;;8.98;3.72;;;7.10;99.90;;;;;;4968599;28;20097;-70
2022/03/14 03:20:19;;;;;;;10.23;3.38;;;7.10;99.90;;;;;;4966268;28;20055;-71
2022/03/14 03:22:46;;;;;;;10.63;4.10;;;7.00;99.90;;;;;;4939503;28;20062;-70
2022/03/14 03:25:13;;;;;;;9.23;4.03;;;7.00;99.90;;;;;;4957757;28;20480;-71
2022/03/14 03:27:40;;;;;;;13.43;4.38;;;7.00;99.90;;;;;;4947782;28;20043;-71
2022/03/14 03:30:08;;;;;;;7.32;3.20;;;7.00;99.90;;;;;;4939121;29;20414;-71
2022/03/14 03:32:35;;;;;;;12.30;3.92;;;7.00;99.90;;;;;;4951972;29;20130;-71
2022/03/14 03:35:02;;;;;;;17.45;3.47;;;6.90;99.90;;;;;;4950136;29;20516;-70
2022/03/14 03:37:29;;;;;;;11.00;4.60;;;6.90;99.90;;;;;;4967150;28;20051;-70
2022/03/14 03:39:56;;;;;;;11.43;3.55;;;6.90;99.90;;;;;;4950714;29;20056;-70
2022/03/14 03:42:23;;;;;;;8.20;3.03;;;6.80;99.90;;;;;;4957997;28;20143;-71
2022/03/14 03:44:53;;;;;;;12.25;3.60;;;6.80;99.90;;;;;;4966334;28;20051;-69
2022/03/14 03:47:20;;;;;;;13.52;3.85;;;6.80;99.90;;;;;;4942628;29;20066;-71
2022/03/14 03:49:46;;;;;;;17.20;4.60;;;6.70;99.90;;;;;;4969267;28;20061;-70
2022/03/14 03:52:16;;;;;;;11.38;3.83;;;6.70;99.90;;;;;;4953923;29;20569;-70
2022/03/14 03:54:43;;;;;;;10.25;2.80;;;6.70;99.90;;;;;;4942673;28;20070;-70
2022/03/14 03:57:10;;;;;;;15.93;4.10;;;6.70;99.90;;;;;;4952512;29;20162;-70
2022/03/14 03:59:37;;;;;;;10.25;3.33;;;6.70;99.90;;;;;;4956807;28;20487;-70
2022/03/14 04:02:04;;;;;;;12.23;4.03;;;6.70;99.90;;;;;;4946523;29;20047;-71
2022/03/14 04:04:35;;;;;;;12.60;3.33;;;6.70;99.90;;;;;;4965980;28;20399;-70
2022/03/14 04:07:04;;;;;;;12.27;3.33;;;6.70;99.90;;;;;;4957812;28;20047;-70
2022/03/14 04:09:31;;;;;;;9.90;3.40;;;6.70;99.90;;;;;;4953703;28;20047;-70
2022/03/14 04:11:58;;;;;;;19.85;4.70;;;6.70;99.90;;;;;;4949486;29;20138;-70
2022/03/14 04:14:29;;;;;;;11.82;4.03;;;6.70;99.90;;;;;;4967832;28;20075;-70
2022/03/14 04:17:02;;;;;;;12.30;3.63;;;6.60;99.90;;;;;;4951758;29;20085;-71
2022/03/14 04:19:29;;;;;;;11.40;4.05;;;6.60;99.90;;;;;;4932935;29;20043;-71
2022/03/14 04:21:56;;;;;;;9.60;3.50;;;6.50;99.90;;;;;;4945168;29;20059;-70
2022/03/14 04:24:24;;;;;;;12.70;4.38;;;6.50;99.90;;;;;;4947128;28;20040;-71
2022/03/14 04:26:51;;;;;;;9.23;4.32;;;6.50;99.90;;;;;;4952223;29;20687;-70
2022/03/14 04:29:18;;;;;;;12.25;3.55;;;6.40;99.90;;;;;;4950925;29;20505;-71
2022/03/14 04:31:45;;;;;;;10.65;4.43;;;6.40;99.90;;;;;;4942693;29;20098;-71
2022/03/14 04:34:12;;;;;;;13.05;4.13;;;6.40;99.90;;;;;;4968267;28;20047;-71
2022/03/14 04:36:39;;;;;;;11.95;3.22;;;6.30;99.90;;;;;;4953264;29;20063;-71
2022/03/14 04:39:06;;;;;;;7.50;2.75;;;6.30;99.90;;;;;;4936919;29;20058;-70
2022/03/14 04:41:35;;;;;;;7.00;2.90;;;6.20;99.90;;;;;;4964666;28;20860;-71
2022/03/14 04:44:05;;;;;;;7.95;3.17;;;6.10;99.90;;;;;;4948755;29;20051;-71
2022/03/14 04:46:32;;;;;;;9.20;2.75;;;6.10;99.90;;;;;;4952292;29;20785;-71
2022/03/14 04:49:00;;;;;;;10.48;3.53;;;6.00;99.90;;;;;;4944775;29;20047;-70
2022/03/14 04:51:27;;;;;;;10.50;4.03;;;6.00;99.90;;;;;;4967894;28;20067;-70
2022/03/14 04:53:54;;;;;;;9.02;3.38;;;5.90;99.90;;;;;;4938433;29;20055;-71
2022/03/14 04:56:21;;;;;;;10.27;2.92;;;5.90;99.90;;;;;;4956905;28;20051;-71
2022/03/14 04:58:48;;;;;;;11.80;3.95;;;5.80;99.90;;;;;;4959499;28;20058;-70
2022/03/14 05:01:15;;;;;;;4.82;2.83;;;5.80;99.90;;;;;;4940304;29;20139;-71
2022/03/14 05:03:43;;;;;;;7.50;3.08;;;5.70;99.90;;;;;;4952938;29;20098;-71
2022/03/14 05:06:10;;;;;;;11.50;4.00;;;5.70;99.90;;;;;;4936105;29;20061;-71
2022/03/14 05:08:37;;;;;;;10.65;2.90;;;5.70;99.90;;;;;;4944038;28;20051;-70
2022/03/14 05:11:04;;;;;;;10.05;3.72;;;5.60;99.90;;;;;;4970413;28;20097;-70
2022/03/14 05:13:31;;;;;;;8.45;3.13;;;5.60;99.90;;;;;;4970135;28;20059;-70
2022/03/14 05:15:58;;;;;;;8.07;2.80;;;5.60;99.90;;;;;;4959087;28;20109;-70
2022/03/14 05:18:25;;;;;;;12.45;3.00;;;5.60;99.90;;;;;;4972448;28;20864;-71
2022/03/14 05:20:52;;;;;;;6.72;3.17;;;5.60;99.90;;;;;;4940872;29;20106;-71
2022/03/14 05:23:19;;;;;;;12.02;4.03;;;5.50;99.90;;;;;;4944015;29;20043;-71
2022/03/14 05:25:46;;;;;;;9.60;2.90;;;5.50;99.90;;;;;;4947139;28;20059;-71
2022/03/14 05:28:13;;;;;;;6.75;3.30;;;5.50;99.90;;;;;;4969889;28;20137;-70
2022/03/14 05:30:40;;;;;;;8.68;3.45;;;5.40;99.90;;;;;;4949963;29;20829;-71
2022/03/14 05:33:07;;;;;;;6.82;2.80;;;5.40;99.90;;;;;;4962135;28;20448;-70
2022/03/14 05:35:34;;;;;;;7.22;3.15;;;5.30;99.90;;;;;;4960246;28;20083;-70
2022/03/14 05:38:01;;;;;;;9.75;3.40;;;5.30;99.90;;;;;;4939362;29;20130;-71
2022/03/14 05:40:28;;;;;;;9.52;3.88;;;5.30;99.90;;;;;;4971980;28;20464;-71
2022/03/14 05:42:56;;;;;;;11.82;3.60;;;5.30;99.90;;;;;;4939845;29;20062;-70
2022/03/14 05:45:23;;;;;;;12.93;3.97;;;5.30;99.90;;;;;;4946761;28;20135;-70
2022/03/14 05:47:53;;;;;;;7.45;2.80;;;5.30;99.90;;;;;;4955092;29;20066;-70
2022/03/14 05:50:20;;;;;;;6.45;2.95;;;5.30;99.90;;;;;;4947744;29;20066;-71
2022/03/14 05:52:47;;;;;;;5.93;2.88;;;5.20;99.90;;;;;;4961860;28;20106;-70
2022/03/14 05:55:14;;;;;;;13.18;4.78;;;5.20;99.90;;;;;;4969721;28;20061;-70
2022/03/14 05:57:41;;;;;;;5.75;2.38;;;5.10;99.90;;;;;;4953536;28;20057;-71
2022/03/14 06:00:08;;;;;;;6.40;2.58;;;5.00;99.90;;;;;;4952427;28;20559;-71
2022/03/14 06:02:36;;;;;;;6.18;2.70;;;5.00;99.90;;;;;;4941432;29;20048;-70
2022/03/14 06:05:03;;;;;;;7.30;2.70;;;4.90;99.90;;;;;;4946601;29;20054;-70
2022/03/14 06:07:30;;;;;;;9.00;3.33;;;4.80;99.90;;;;;;4935618;29;20051;-71
2022/03/14 06:09:57;;;;;;;7.63;2.78;;;4.80;99.90;;;;;;4968436;28;20055;-71
2022/03/14 06:12:25;;;;;;;6.32;2.92;;;4.70;99.90;;;;;;4970598;28;20086;-71
2022/03/14 06:14:53;;;;;;;7.55;3.60;;;4.80;99.90;;;;;;4948247;29;20058;-71
2022/03/14 06:17:20;;;;;;;6.75;3.65;;;4.70;99.90;;;;;;4949459;29;20048;-71
2022/03/14 06:19:48;;;;;;;8.20;3.38;;;4.60;99.90;;;;;;4948664;28;20056;-63
2022/03/14 06:22:18;;;;;;;448.17;311.02;;;4.60;99.90;;;;;;4947829;29;20402;-72
2022/03/14 06:24:46;;;;;;;344.10;291.00;;;4.70;99.90;;;;;;4954140;29;20146;-70
2022/03/14 06:27:17;;;;;;;108.57;81.25;;;4.70;99.90;;;;;;4963903;28;20895;-70
2022/03/14 06:29:51;;;;;;;53.38;35.10;;;4.70;99.90;;;;;;4955861;28;20051;-70
2022/03/14 06:32:18;;;;;;;31.05;19.00;;;4.70;99.90;;;;;;4966850;28;20051;-70
2022/03/14 06:34:45;;;;;;;30.85;20.65;;;4.70;99.90;;;;;;4944046;29;20051;-70
2022/03/14 06:37:12;;;;;;;26.45;14.95;;;4.70;99.90;;;;;;4950663;28;20048;-70
2022/03/14 06:39:40;;;;;;;17.00;10.57;;;4.70;99.90;;;;;;4938081;29;20058;-72
2022/03/14 06:42:09;;;;;;;9.10;5.60;;;4.70;99.90;;;;;;4966692;28;20058;-71
2022/03/14 06:44:39;;;;;;;11.63;6.70;;;4.80;99.90;;;;;;4964941;28;20071;-71
2022/03/14 06:47:09;;;;;;;14.20;5.47;;;4.80;99.90;;;;;;4951339;29;20059;-71
2022/03/14 06:49:37;;;;;;;8.57;3.92;;;4.80;99.90;;;;;;4953884;29;20066;-72
2022/03/14 06:52:05;;;;;;;82.65;63.58;;;4.90;99.90;;;;;;4942252;28;20057;-72
2022/03/14 06:54:32;;;;;;;181.10;118.72;;;4.90;99.90;;;;;;4951438;29;20083;-72
2022/03/14 06:56:59;;;;;;;69.88;47.40;;;5.00;99.90;;;;;;4948134;29;20137;-71
2022/03/14 06:59:26;;;;;;;39.55;26.95;;;5.20;99.90;;;;;;4947182;28;20060;-68
2022/03/14 07:01:53;;;;;;;30.08;16.17;;;5.20;99.90;;;;;;4950568;29;20392;-70
2022/03/14 07:04:20;;;;;;;16.27;10.50;;;5.30;99.90;;;;;;4966013;28;20056;-69
2022/03/14 07:06:47;;;;;;;15.57;8.60;;;5.40;99.90;;;;;;4955435;28;20083;-69
2022/03/14 07:09:14;;;;;;;13.70;6.03;;;5.40;99.90;;;;;;4961826;28;20081;-71
2022/03/14 07:11:41;;;;;;;11.05;5.68;;;5.50;99.90;;;;;;4969545;28;20134;-70
2022/03/14 07:14:08;;;;;;;9.48;5.32;;;5.60;99.90;;;;;;4953536;28;20054;-70
2022/03/14 07:16:35;;;;;;;332.75;191.88;;;5.60;99.90;;;;;;4933509;29;20484;-61
2022/03/14 07:19:02;;;;;;;126.97;87.13;;;5.70;99.90;;;;;;4950124;29;20126;-69
2022/03/14 07:21:29;;;;;;;61.90;36.33;;;5.70;99.90;;;;;;4956458;28;20052;-68
2022/03/14 07:24:00;;;;;;;35.95;19.20;;;5.70;99.90;;;;;;4935253;29;20071;-69
2022/03/14 07:26:26;;;;;;;25.25;16.70;;;5.70;99.90;;;;;;4951646;29;20748;-69
2022/03/14 07:28:53;;;;;;;20.45;11.40;;;5.80;99.90;;;;;;4952899;28;20054;-69
2022/03/14 07:31:21;;;;;;;11.38;7.93;;;5.80;99.90;;;;;;4953043;28;20062;-69
2022/03/14 07:33:48;;;;;;;8.98;5.47;;;5.80;99.90;;;;;;4952746;29;20047;-68
2022/03/14 07:36:15;;;;;;;7.85;3.53;;;5.90;99.90;;;;;;4952528;29;20047;-68
2022/03/14 07:38:42;;;;;;;4.97;3.47;;;5.90;99.90;;;;;;4954175;29;20047;-68
2022/03/14 07:41:10;;;;;;;10.52;4.18;;;6.00;99.90;;;;;;4953423;29;20193;-68
2022/03/14 07:43:43;;;;;;;7.10;2.83;;;6.10;99.90;;;;;;4951553;29;20134;-68
2022/03/14 07:46:10;;;;;;;6.43;2.58;;;6.10;99.90;;;;;;4943680;28;20483;-69
2022/03/14 07:48:37;;;;;;;4.97;2.45;;;6.20;99.90;;;;;;4953457;29;20083;-68
2022/03/14 07:51:04;;;;;;;5.85;2.88;;;6.20;99.90;;;;;;4935917;29;20479;-69
2022/03/14 07:53:34;;;;;;;7.38;4.03;;;6.30;99.90;;;;;;4933938;29;20055;-69
2022/03/14 07:56:00;;;;;;;9.07;2.47;;;6.30;99.90;;;;;;4966935;28;20128;-69
2022/03/14 07:58:27;;;;;;;7.32;2.47;;;6.40;99.90;;;;;;4951161;28;20435;-69
2022/03/14 08:00:57;;;;;;;12.63;3.05;;;6.40;99.90;;;;;;4956706;28;20418;-69
2022/03/14 08:03:25;;;;;;;6.47;2.78;;;6.50;99.90;;;;;;4954990;28;20051;-70
2022/03/14 08:05:55;;;;;;;6.68;2.95;;;6.60;99.90;;;;;;4960747;28;20050;-69
2022/03/14 08:08:23;;;;;;;7.00;2.72;;;6.60;99.90;;;;;;4954759;28;20043;-70
2022/03/14 08:10:50;;;;;;;8.27;2.60;;;6.70;99.90;;;;;;4958543;28;20072;-70
2022/03/14 08:13:20;;;;;;;8.25;3.08;;;6.80;99.90;;;;;;4953285;28;20517;-70
2022/03/14 08:15:47;;;;;;;7.10;2.88;;;6.90;99.90;;;;;;4946871;29;20048;-68
2022/03/14 08:18:14;;;;;;;5.90;2.72;;;7.00;99.90;;;;;;4950028;29;20051;-68
2022/03/14 08:20:41;;;;;;;7.50;2.35;;;7.10;99.90;;;;;;4950306;29;20051;-69
2022/03/14 08:23:08;;;;;;;7.97;2.05;;;7.20;99.90;;;;;;4952314;29;20074;-67
2022/03/14 08:25:35;;;;;;;8.23;2.55;;;7.30;99.90;;;;;;4953316;28;20074;-69
2022/03/14 08:28:03;;;;;;;7.60;2.78;;;7.40;99.90;;;;;;4952773;28;20047;-70
2022/03/14 08:30:29;;;;;;;11.07;2.75;;;7.50;99.90;;;;;;4955347;28;20054;-69
2022/03/14 08:32:57;;;;;;;6.90;2.35;;;7.60;99.90;;;;;;4972946;28;20057;-69
2022/03/14 08:35:24;;;;;;;14.63;2.92;;;7.70;99.90;;;;;;4953446;28;20061;-67
2022/03/14 08:37:52;;;;;;;344.70;257.83;;;7.70;99.90;;;;;;4941204;28;20079;-68
2022/03/14 08:40:22;;;;;;;67.03;48.30;;;7.90;99.90;;;;;;4950192;29;20135;-69
2022/03/14 08:42:50;;;;;;;32.75;18.00;;;8.00;99.90;;;;;;4951812;29;20050;-73
2022/03/14 08:45:17;;;;;;;17.30;6.60;;;8.10;99.90;;;;;;4953386;28;20079;-76
2022/03/14 08:47:44;;;;;;;10.05;4.50;;;8.10;99.90;;;;;;4969675;28;20098;-74
2022/03/14 08:50:11;;;;;;;9.90;3.03;;;8.10;99.90;;;;;;4945722;28;20064;-73
2022/03/14 08:52:38;;;;;;;16.27;2.90;;;8.20;99.90;;;;;;4948658;29;20099;-75
2022/03/14 08:55:05;;;;;;;6.75;2.47;;;8.20;99.90;;;;;;4949345;29;20427;-75
2022/03/14 08:57:37;;;;;;;13.80;4.00;;;8.20;99.90;;;;;;4964001;28;20054;-75
2022/03/14 09:00:07;;;;;;;26.75;16.77;;;8.30;99.90;;;;;;4967866;28;20057;-72
2022/03/14 09:02:34;;;;;;;;;;;8.30;99.90;;;;;;4954102;28;20050;-72
2022/03/14 09:05:01;;;;;;;16.83;4.95;;;8.40;99.90;;;;;;4954001;28;19930;-73
2022/03/14 09:07:29;;;;;;;10.13;3.85;;;8.50;99.90;;;;;;4932503;29;20054;-74
2022/03/14 09:10:07;;;;;;;13.70;2.80;;;8.60;99.90;;;;;;4933595;29;20423;-75
2022/03/14 09:12:35;;;;;;;8.80;2.80;;;8.70;99.90;;;;;;4934028;29;20056;-74
2022/03/14 09:15:03;;;;;;;13.25;2.80;;;8.70;99.90;;;;;;4932976;29;20492;-75
2022/03/14 09:17:31;;;;;;;11.25;3.97;;;8.70;99.90;;;;;;4933702;29;20404;-76
2022/03/14 09:20:01;;;;;;;8.88;2.67;;;8.70;99.90;;;;;;4933183;29;20058;-75
2022/03/14 09:22:28;;;;;;;15.13;3.83;;;8.80;99.90;;;;;;4932976;29;20059;-74
2022/03/14 09:24:56;;;;;;;17.13;6.65;;;8.90;99.90;;;;;;4933863;29;20123;-75
2022/03/14 09:27:23;;;;;;;12.63;4.03;;;9.00;99.90;;;;;;4933669;29;20055;-73
2022/03/14 09:29:51;;;;;;;11.00;3.53;;;9.10;99.90;;;;;;4947570;28;20106;-74
2022/03/14 09:32:20;;;;;;;10.00;2.30;;;9.20;99.90;;;;;;4921522;29;20062;-75
2022/03/14 09:34:47;;;;;;;12.30;2.50;;;9.40;99.90;;;;;;4936495;29;20142;-74
2022/03/14 09:37:13;;;;;;;9.93;3.28;;;9.50;99.90;;;;;;4935876;29;20059;-74
2022/03/14 09:39:40;;;;;;;11.23;3.25;;;9.60;99.90;;;;;;4951744;29;20491;-74
2022/03/14 09:42:13;;;;;;;15.35;3.13;;;9.70;99.90;;;;;;4933918;29;20044;-72
2022/03/14 09:44:41;;;;;;;10.82;3.47;;;9.80;99.90;;;;;;4941393;29;20090;-73
2022/03/14 09:47:09;;;;;;;7.65;2.63;;;10.00;99.90;;;;;;4950066;29;20098;-74
2022/03/14 09:49:36;;;;;;;14.85;2.83;;;10.10;99.90;;;;;;4950248;29;20051;-75
2022/03/14 09:52:03;;;;;;;11.43;3.03;;;10.20;99.90;;;;;;4950338;29;20066;-73
2022/03/14 09:54:31;;;;;;;19.50;4.32;;;10.40;99.90;;;;;;4951961;28;20055;-76
2022/03/14 09:57:01;;;;;;;15.07;6.43;;;10.50;99.90;;;;;;4954472;28;20486;-75
2022/03/14 09:59:28;;;;;;;11.40;3.92;;;10.70;99.90;;;;;;4964929;28;20506;-75
2022/03/14 10:01:59;;;;;;;8.27;3.03;;;10.80;99.90;;;;;;4973394;28;20047;-74
2022/03/14 10:04:26;;;;;;;21.38;4.32;;;10.90;99.90;;;;;;4962713;28;20410;-75
2022/03/14 10:06:54;;;;;;;42.22;4.35;;;11.00;99.90;;;;;;4953720;29;20419;-76
2022/03/14 10:09:21;;;;;;;8.98;3.53;;;11.10;99.90;;;;;;4953193;29;20047;-75
2022/03/14 10:11:47;;;;;;;11.65;3.53;;;11.20;99.90;;;;;;4953312;29;20067;-75
2022/03/14 10:14:19;;;;;;;12.77;3.50;;;11.30;98.80;;;;;;4955647;29;20175;-76
2022/03/14 10:16:47;;;;;;;11.48;3.95;;;11.30;99.80;;;;;;4954795;28;20074;-72
2022/03/14 10:19:22;;;;;;;16.55;9.43;;;11.50;99.90;;;;;;4953212;29;20458;-75
2022/03/14 10:21:52;;;;;;;6.47;3.15;;;11.60;98.90;;;;;;4954438;28;20047;-70
2022/03/14 10:24:22;;;;;;;10.60;3.55;;;11.70;98.10;;;;;;4933201;29;20062;-71
2022/03/14 10:26:50;;;;;;;10.10;2.20;;;11.80;96.30;;;;;;4953277;28;20052;-72
2022/03/14 10:29:19;;;;;;;9.25;2.33;;;11.80;95.80;;;;;;4963256;28;20406;-69
2022/03/14 10:31:54;;;;;;;8.75;2.67;;;11.90;95.30;;;;;;4954670;28;20422;-69
2022/03/14 10:34:21;;;;;;;14.45;6.60;;;12.10;94.80;;;;;;4960954;28;20051;-69
2022/03/14 10:36:51;;;;;;;11.73;2.88;;;12.20;94.50;;;;;;4951270;29;20051;-69
2022/03/14 10:39:27;;;;;;;10.93;5.28;;;12.30;94.30;;;;;;4950762;29;20063;-70
2022/03/14 10:42:04;;;;;;;8.43;3.67;;;12.50;94.90;;;;;;4950897;29;20424;-69
2022/03/14 10:44:47;;;;;;;10.00;3.15;;;12.70;94.50;;;;;;4943294;29;20488;-71
2022/03/14 10:47:19;;;;;;;6.43;2.53;;;12.80;93.50;;;;;;4946714;29;20055;-70
2022/03/14 10:49:46;;;;;;;8.02;2.70;;;12.90;91.60;;;;;;4949777;29;20051;-70
2022/03/14 10:52:17;;;;;;;8.23;2.55;;;13.00;92.10;;;;;;4951749;28;20054;-72
2022/03/14 10:54:44;;;;;;;9.82;2.45;;;13.20;92.70;;;;;;4951761;28;20062;-71
2022/03/14 10:57:23;;;;;;;7.72;2.92;;;13.30;91.90;;;;;;4949340;29;20566;-71
2022/03/14 10:59:51;;;;;;;10.63;3.67;;;13.40;88.50;;;;;;4964575;28;20046;-71
2022/03/14 11:02:22;;;;;;;10.85;2.80;;;13.40;89.00;;;;;;4953937;28;20056;-70
2022/03/14 11:04:51;;;;;;;9.27;3.30;;;13.40;89.10;;;;;;4929355;29;20052;-72
2022/03/14 11:07:20;;;;;;;10.13;2.97;;;13.30;88.50;;;;;;4932764;29;20052;-69
2022/03/14 11:09:50;;;;;;;5.05;3.03;;;13.30;86.20;;;;;;4935063;29;20051;-69
2022/03/14 11:12:18;;;;;;;;;;;13.30;87.40;;;;;;4946870;29;20109;-70
2022/03/14 11:14:55;;;;;;;6.53;2.38;;;13.20;86.40;;;;;;4948984;29;19926;-70
2022/03/14 11:17:23;;;;;;;5.82;2.30;;;13.10;86.60;;;;;;4951270;29;20051;-70
2022/03/14 11:19:51;;;;;;;5.30;2.30;;;13.10;86.50;;;;;;4950851;28;20054;-70
2022/03/14 11:22:18;;;;;;;7.32;2.42;;;13.10;86.90;;;;;;4950013;29;20098;-70
2022/03/14 11:24:53;;;;;;;6.25;2.70;;;13.10;88.00;;;;;;4950413;29;20491;-70
2022/03/14 11:27:24;;;;;;;4.80;1.90;;;13.10;86.10;;;;;;4951124;28;20407;-70
2022/03/14 11:29:55;;;;;;;8.18;2.90;;;13.20;87.50;;;;;;4965790;28;20109;-70
2022/03/14 11:32:23;;;;;;;4.75;1.75;;;13.30;88.60;;;;;;4971260;28;20047;-70
2022/03/14 11:35:07;;;;;;;354.35;307.92;;;13.40;87.20;;;;;;4954521;28;20047;-70
2022/03/14 11:37:34;;;;;;;47.92;42.47;;;13.50;87.10;;;;;;4950390;29;20058;-70
2022/03/14 11:40:02;;;;;;;17.67;12.23;;;13.50;86.80;;;;;;4934324;29;20853;-70
2022/03/14 11:42:30;;;;;;;10.80;5.60;;;13.50;84.20;;;;;;4950423;29;20058;-70
2022/03/14 11:45:07;;;;;;;7.90;3.42;;;13.50;84.30;;;;;;4949558;29;20434;-70
2022/03/14 11:47:35;;;;;;;9.05;3.10;;;13.50;83.50;;;;;;4948593;29;20506;-70
2022/03/14 11:50:02;;;;;;;7.00;2.22;;;13.50;86.20;;;;;;4950071;29;20377;-70
2022/03/14 11:52:36;;;;;;;11.73;3.25;;;13.60;84.90;;;;;;4950142;29;20138;-70
2022/03/14 11:55:14;;;;;;;6.22;2.47;;;13.80;84.20;;;;;;4933939;29;20047;-64
2022/03/14 11:57:42;;;;;;;12.80;6.20;;;14.00;84.70;;;;;;4949916;29;20054;-70
2022/03/14 12:00:21;;;;;;;4.03;2.03;;;14.00;82.00;;;;;;4950195;28;20063;-69
2022/03/14 12:02:50;;;;;;;8.48;3.72;;;13.90;78.90;;;;;;4938057;28;20061;-69
2022/03/14 12:05:32;;;;;;;8.30;2.70;;;13.80;82.40;;;;;;4944645;28;20055;-70
2022/03/14 12:08:00;;;;;;;6.18;1.92;;;13.70;82.00;;;;;;4939728;29;20055;-68
2022/03/14 12:10:31;;;;;;;7.75;2.95;;;13.70;81.20;;;;;;4935891;29;20478;-69
2022/03/14 12:12:58;;;;;;;24.45;21.73;;;13.70;81.40;;;;;;4945337;28;20053;-70
2022/03/14 12:15:44;;;;;;;67.35;52.00;;;13.70;81.00;;;;;;4951030;28;20395;-74
2022/03/14 12:18:27;;;;;;;8.45;5.53;;;13.80;81.60;;;;;;4946312;28;20087;-71
2022/03/14 12:21:02;;;;;;;10.77;2.90;;;13.80;80.40;;;;;;4942933;29;20139;-75
2022/03/14 12:23:32;;;;;;;7.45;2.95;;;13.80;80.00;;;;;;4936601;29;20051;-75
2022/03/14 12:26:01;;;;;;;6.25;2.85;;;13.80;81.80;;;;;;4912642;29;20055;-73
2022/03/14 12:28:33;;;;;;;7.80;2.40;;;13.90;82.40;;;;;;4965159;28;20498;-73
2022/03/14 12:31:10;;;;;;;5.47;2.38;;;14.00;83.40;;;;;;4949254;28;20054;-75
2022/03/14 12:33:39;;;;;;;8.73;1.92;;;14.20;82.40;;;;;;4949834;28;20505;-72
2022/03/14 12:36:22;;;;;;;6.68;2.83;;;14.20;80.80;;;;;;4930140;29;20066;-75
2022/03/14 12:39:10;;;;;;;23.63;11.38;;;14.00;81.60;;;;;;4936831;29;20051;-72
2022/03/14 12:41:41;;;;;;;34.55;24.70;;;14.00;80.40;;;;;;4940958;28;20054;-74
2022/03/14 12:44:27;;;;;;;23.40;12.50;;;13.80;81.80;;;;;;4932694;29;20542;-71
2022/03/14 12:46:56;;;;;;;38.40;34.45;;;13.70;82.60;;;;;;4928223;29;20051;-71
2022/03/14 12:49:50;;;;;;;9.27;4.15;;;13.60;83.30;;;;;;4911449;29;20083;-75
2022/03/14 12:52:18;;;;;;;7.80;4.13;;;13.50;81.20;;;;;;4944286;29;20074;-80
2022/03/14 12:54:46;;;;;;;13.63;8.75;;;13.50;82.50;;;;;;4949074;28;20055;-64